Time;durP1;ratioP1;P1;durP2;ratioP2;P2;SDS_P1;SDS_P2;PMS_P1;PMS_P2;Temp;Humidity;BMP_temperature;BMP_pressure;BME280_temperature;BME280_humidity;BME280_pressure;Samples;Min_cycle;Max_cycle;Signal;HPM_P1;HPM_P2
2021/12/17 00:07:18;;;;;;;17.30;15.47;;;5.30;68.00;;;;;;4955088;29;20391;-88
2021/12/17 00:09:45;;;;;;;16.23;14.50;;;5.50;68.60;;;;;;4969454;28;20466;-84
2021/12/17 00:12:14;;;;;;;18.10;14.23;;;5.40;68.00;;;;;;4969136;28;20770;-84
2021/12/17 00:14:42;;;;;;;16.00;14.20;;;5.40;68.00;;;;;;4969713;28;20529;-85
2021/12/17 00:17:13;;;;;;;17.37;15.20;;;5.40;68.00;;;;;;4969224;28;20912;-84
2021/12/17 00:49:31;;;;;;;15.07;13.73;;;5.50;69.00;;;;;;4961452;28;20911;-88
2021/12/17 00:51:59;;;;;;;16.07;14.37;;;5.50;68.80;;;;;;4968946;28;20411;-88
2021/12/17 00:54:37;;;;;;;18.30;16.43;;;5.50;68.10;;;;;;4968895;28;20423;-89
2021/12/17 00:57:15;;;;;;;17.47;15.60;;;5.50;68.90;;;;;;4968781;28;20563;-87
2021/12/17 00:59:45;;;;;;;15.57;13.97;;;5.50;68.10;;;;;;4968520;28;20468;-86
2021/12/17 01:02:14;;;;;;;16.90;13.63;;;5.50;67.70;;;;;;4968586;28;20501;-87
2021/12/17 01:04:45;;;;;;;15.00;13.40;;;5.50;68.10;;;;;;4968924;28;20415;-86
2021/12/17 01:07:13;;;;;;;16.50;14.80;;;5.50;68.10;;;;;;4968698;28;20419;-87
2021/12/17 01:09:39;;;;;;;17.37;15.57;;;5.60;68.20;;;;;;4969051;28;20819;-86
2021/12/17 01:12:06;;;;;;;16.87;15.20;;;5.60;68.20;;;;;;4968911;28;20477;-86
2021/12/17 01:14:33;;;;;;;20.40;14.67;;;5.60;68.90;;;;;;4968699;28;21011;-87
2021/12/17 01:16:59;;;;;;;18.67;15.07;;;5.70;68.30;;;;;;4968373;28;20450;-86
2021/12/17 01:24:54;;;;;;;16.57;14.90;;;5.60;68.20;;;;;;4953943;29;20835;-87
2021/12/17 01:35:37;;;;;;;15.73;14.13;;;5.80;68.40;;;;;;4954551;29;20542;-88
2021/12/17 01:43:49;;;;;;;18.00;13.97;;;5.70;68.20;;;;;;4953666;29;20454;-88
2021/12/17 01:46:22;;;;;;;16.33;14.70;;;5.70;67.80;;;;;;4968322;28;20971;-88
2021/12/17 01:59:54;;;;;;;16.17;14.47;;;5.60;69.00;;;;;;4953793;29;20915;-87
2021/12/17 02:02:20;;;;;;;16.07;14.40;;;5.50;68.40;;;;;;4968396;28;20410;-87
2021/12/17 02:04:45;;;;;;;16.30;14.60;;;5.50;68.50;;;;;;4967228;28;20435;-88
2021/12/17 02:07:11;;;;;;;19.03;14.87;;;5.50;68.80;;;;;;4968985;28;20180;-86
2021/12/17 02:10:29;;;;;;;17.13;13.97;;;5.60;68.20;;;;;;4955823;28;20235;-86
2021/12/17 02:19:24;;;;;;;15.43;13.80;;;5.60;68.20;;;;;;4955558;28;20434;-89
2021/12/17 02:22:20;;;;;;;15.43;13.77;;;5.60;68.90;;;;;;4956765;29;20407;-87
2021/12/17 02:32:17;;;;;;;14.93;13.50;;;5.50;69.60;;;;;;4963258;28;20418;-87
2021/12/17 02:37:22;;;;;;;15.50;13.90;;;5.50;70.00;;;;;;4955994;28;20445;-87
2021/12/17 02:47:38;;;;;;;15.93;14.47;;;5.60;70.60;;;;;;4956039;29;20438;-87
2021/12/17 02:50:07;;;;;;;15.10;13.50;;;5.60;69.40;;;;;;4970523;28;20915;-88
2021/12/17 02:52:36;;;;;;;14.67;13.27;;;5.70;69.70;;;;;;4954302;28;20426;-88
2021/12/17 02:55:03;;;;;;;15.73;14.13;;;5.70;69.70;;;;;;4971078;28;20437;-89
2021/12/17 02:57:28;;;;;;;16.10;13.73;;;5.70;69.10;;;;;;4956552;28;20418;-87
2021/12/17 02:59:55;;;;;;;14.77;13.37;;;5.70;68.80;;;;;;4971189;28;20927;-88
2021/12/17 03:02:23;;;;;;;16.13;14.47;;;5.70;69.10;;;;;;4971380;28;20892;-87
2021/12/17 03:04:50;;;;;;;16.17;14.40;;;5.80;68.70;;;;;;4971776;28;20431;-88
2021/12/17 03:07:16;;;;;;;16.63;14.37;;;5.70;69.00;;;;;;4972225;28;20517;-86
2021/12/17 03:10:15;;;;;;;15.00;13.40;;;5.80;68.40;;;;;;4975326;28;20474;-88
2021/12/17 03:25:53;;;;;;;14.40;13.00;;;5.80;69.20;;;;;;4955029;28;20453;-87
2021/12/17 03:28:19;;;;;;;16.37;14.77;;;5.80;68.60;;;;;;4969978;28;20495;-87
2021/12/17 03:30:46;;;;;;;14.90;13.40;;;5.70;68.80;;;;;;4970208;28;20506;-88
2021/12/17 03:33:12;;;;;;;18.53;15.00;;;5.70;68.30;;;;;;4970179;28;20513;-88
2021/12/17 03:35:38;;;;;;;16.67;14.97;;;5.70;69.20;;;;;;4970285;28;20912;-88
2021/12/17 03:38:04;;;;;;;18.53;15.40;;;5.70;69.20;;;;;;4969918;28;20306;-88
2021/12/17 03:40:32;;;;;;;18.43;15.50;;;5.70;69.30;;;;;;4969721;28;20411;-87
2021/12/17 03:43:04;;;;;;;15.63;13.97;;;5.70;69.00;;;;;;4970542;28;20439;-87
2021/12/17 03:45:31;;;;;;;16.80;14.97;;;5.80;69.10;;;;;;4970152;28;20411;-87
2021/12/17 03:47:56;;;;;;;17.33;15.47;;;5.80;68.80;;;;;;4955247;28;20415;-87
2021/12/17 03:50:24;;;;;;;20.77;15.93;;;5.80;68.50;;;;;;4969775;28;20466;-88
2021/12/17 03:52:50;;;;;;;17.13;15.43;;;5.70;69.30;;;;;;4969227;28;20490;-88
2021/12/17 03:55:16;;;;;;;16.53;14.23;;;5.70;69.60;;;;;;4969852;28;20787;-87
2021/12/17 03:57:42;;;;;;;16.40;14.80;;;5.80;69.60;;;;;;4969251;28;20427;-87
2021/12/17 04:00:10;;;;;;;18.00;16.20;;;5.80;69.50;;;;;;4968818;28;20175;-88
2021/12/17 04:02:36;;;;;;;20.57;15.30;;;5.80;70.00;;;;;;4968922;28;20510;-88
2021/12/17 04:05:03;;;;;;;18.03;16.20;;;5.80;70.00;;;;;;4969049;28;20515;-87
2021/12/17 04:07:29;;;;;;;16.80;15.10;;;5.70;70.10;;;;;;4969495;28;20430;-87
2021/12/17 04:09:55;;;;;;;15.43;13.93;;;5.70;70.30;;;;;;4955009;28;20513;-88
2021/12/17 04:12:28;;;;;;;16.50;14.90;;;5.80;70.50;;;;;;4970028;28;20191;-87
2021/12/17 04:14:54;;;;;;;16.27;14.63;;;5.70;70.70;;;;;;4969703;28;20196;-87
2021/12/17 04:17:25;;;;;;;17.90;16.30;;;5.80;69.80;;;;;;4970407;28;20422;-88
2021/12/17 04:19:51;;;;;;;19.80;17.43;;;5.80;70.40;;;;;;4970550;28;20199;-86
2021/12/17 04:22:17;;;;;;;18.73;16.60;;;5.70;70.70;;;;;;4970636;28;20919;-87
2021/12/17 04:24:43;;;;;;;20.40;18.33;;;5.70;72.40;;;;;;4970364;28;20179;-88
2021/12/17 04:27:09;;;;;;;19.00;17.07;;;5.80;72.60;;;;;;4970076;28;20421;-89
2021/12/17 04:29:40;;;;;;;18.83;16.93;;;5.80;72.70;;;;;;4970319;28;20278;-87
2021/12/17 04:32:06;;;;;;;21.83;17.60;;;5.80;71.40;;;;;;4969576;28;20182;-87
2021/12/17 04:34:32;;;;;;;18.97;16.93;;;5.80;72.10;;;;;;4956066;28;20808;-87
2021/12/17 04:36:58;;;;;;;19.60;17.60;;;5.80;71.50;;;;;;4955718;28;20827;-89
2021/12/17 04:39:24;;;;;;;19.97;17.87;;;5.90;71.60;;;;;;4970373;28;20467;-87
2021/12/17 04:41:56;;;;;;;18.90;16.90;;;5.80;71.70;;;;;;4970204;28;20252;-87
2021/12/17 04:44:26;;;;;;;19.40;17.50;;;5.70;72.00;;;;;;4970850;28;20426;-87
2021/12/17 04:57:54;;;;;;;20.87;18.67;;;5.80;72.40;;;;;;4955965;29;21001;-89
2021/12/17 05:00:24;;;;;;;19.90;18.00;;;5.80;73.40;;;;;;4955767;28;20990;-88
2021/12/17 05:02:53;;;;;;;19.50;17.50;;;5.90;73.00;;;;;;4970960;28;20434;-89
2021/12/17 05:05:26;;;;;;;21.53;17.70;;;5.80;72.60;;;;;;4970797;28;20423;-89
2021/12/17 05:08:02;;;;;;;19.40;17.37;;;5.70;72.80;;;;;;4971139;28;20430;-88
2021/12/17 05:18:32;;;;;;;19.60;17.57;;;5.80;72.30;;;;;;4955459;29;20461;-88
2021/12/17 05:21:02;;;;;;;20.83;18.60;;;5.80;72.10;;;;;;4969738;28;20434;-87
2021/12/17 05:23:33;;;;;;;18.47;16.47;;;5.80;72.60;;;;;;4969972;28;20422;-88
2021/12/17 05:26:01;;;;;;;18.43;16.53;;;5.80;72.20;;;;;;4970565;28;20423;-87
2021/12/17 05:28:27;;;;;;;18.27;16.40;;;5.90;72.40;;;;;;4970775;28;20916;-87
2021/12/17 05:30:55;;;;;;;20.27;16.10;;;5.90;72.40;;;;;;4971455;28;20424;-87
2021/12/17 05:33:21;;;;;;;19.57;17.57;;;5.90;72.10;;;;;;4971036;28;20179;-88
2021/12/17 05:35:48;;;;;;;20.03;17.97;;;5.90;71.60;;;;;;4970374;28;20473;-87
2021/12/17 05:38:15;;;;;;;20.57;18.00;;;5.90;72.80;;;;;;4954047;28;20505;-87
2021/12/17 05:40:42;;;;;;;20.67;18.53;;;5.90;72.90;;;;;;4969972;28;20789;-86
2021/12/17 05:43:08;;;;;;;17.27;15.47;;;6.00;72.90;;;;;;4970130;28;20459;-87
2021/12/17 05:48:09;;;;;;;20.57;18.10;;;6.00;72.00;;;;;;4955689;28;20744;-88
2021/12/17 05:50:39;;;;;;;20.10;17.47;;;6.00;71.90;;;;;;4953904;29;20423;-88
2021/12/17 05:53:06;;;;;;;19.42;17.33;;;6.00;71.80;;;;;;4969964;28;20450;-90
2021/12/17 05:55:34;;;;;;;22.20;17.20;;;6.10;71.60;;;;;;4973815;28;20179;-89
2021/12/17 05:58:00;;;;;;;18.77;15.87;;;6.10;71.50;;;;;;4973393;28;20469;-88
2021/12/17 06:00:29;;;;;;;16.13;14.53;;;6.10;71.20;;;;;;4973575;28;20419;-87
2021/12/17 06:02:56;;;;;;;18.80;16.83;;;6.20;71.40;;;;;;4974382;28;20427;-89
2021/12/17 06:05:21;;;;;;;16.63;14.70;;;6.10;70.90;;;;;;4973972;28;20422;-88
2021/12/17 06:07:47;;;;;;;16.40;14.70;;;6.20;71.10;;;;;;4973875;28;20419;-87
2021/12/17 06:10:13;;;;;;;16.60;13.73;;;6.20;70.50;;;;;;4973780;28;20183;-88
2021/12/17 06:12:40;;;;;;;18.63;15.10;;;6.20;70.70;;;;;;4973689;28;20454;-88
2021/12/17 06:15:09;;;;;;;16.67;14.67;;;6.10;70.90;;;;;;4973770;28;20945;-87
2021/12/17 06:17:35;;;;;;;15.80;13.30;;;6.10;70.30;;;;;;4973609;28;20847;-86
2021/12/17 06:20:00;;;;;;;14.33;12.93;;;6.20;70.40;;;;;;4973589;28;20457;-87
2021/12/17 06:22:26;;;;;;;19.43;13.37;;;6.20;69.80;;;;;;4958929;28;20415;-87
2021/12/17 06:24:52;;;;;;;15.27;13.67;;;6.20;70.10;;;;;;4958983;28;20176;-86
2021/12/17 06:27:19;;;;;;;15.87;13.80;;;6.20;69.60;;;;;;4973927;28;20182;-86
2021/12/17 06:29:46;;;;;;;14.17;12.70;;;6.20;70.30;;;;;;4973473;28;20186;-82
2021/12/17 06:32:11;;;;;;;12.93;11.73;;;6.20;69.40;;;;;;4973317;28;20431;-87
2021/12/17 06:34:38;;;;;;;12.90;11.67;;;6.20;68.80;;;;;;4973280;28;20529;-86
2021/12/17 06:37:05;;;;;;;13.23;12.00;;;6.30;68.60;;;;;;4973075;28;20180;-86
2021/12/17 06:39:32;;;;;;;11.73;10.63;;;6.40;67.50;;;;;;4972857;28;20455;-86
2021/12/17 06:42:03;;;;;;;11.43;10.33;;;6.40;66.90;;;;;;4972678;28;20898;-86
2021/12/17 06:44:29;;;;;;;12.40;11.20;;;6.40;65.80;;;;;;4975841;28;20748;-87
2021/12/17 06:47:06;;;;;;;13.03;10.90;;;6.30;65.80;;;;;;4973246;28;20422;-85
2021/12/17 07:10:51;;;;;;;13.10;11.80;;;6.10;68.20;;;;;;4956760;28;20435;-82
2021/12/17 07:22:03;;;;;;;12.67;11.37;;;6.10;66.90;;;;;;4957053;29;20414;-83
2021/12/17 07:24:52;;;;;;;12.47;11.20;;;6.10;66.00;;;;;;4971192;28;20416;-80
2021/12/17 07:35:48;;;;;;;12.13;11.00;;;6.20;66.40;;;;;;4956118;28;20762;-82
2021/12/17 07:41:00;;;;;;;14.60;13.13;;;6.10;66.10;;;;;;4955591;28;20415;-82
2021/12/17 07:43:30;;;;;;;13.30;12.00;;;6.10;66.20;;;;;;4970408;28;20419;-82
2021/12/17 07:45:56;;;;;;;11.77;10.17;;;6.20;65.60;;;;;;4971146;28;20426;-83
2021/12/17 07:48:23;;;;;;;11.33;10.23;;;6.10;64.40;;;;;;4970258;28;20411;-81
2021/12/17 07:50:49;;;;;;;12.37;11.10;;;6.10;64.30;;;;;;4970673;28;20850;-83
2021/12/17 07:53:16;;;;;;;12.27;10.93;;;6.10;64.00;;;;;;4971754;28;20514;-82
2021/12/17 07:55:42;;;;;;;12.43;11.17;;;6.20;64.10;;;;;;4971349;28;20494;-82
2021/12/17 07:58:08;;;;;;;11.23;10.10;;;6.10;63.10;;;;;;4970956;28;20488;-83
2021/12/17 08:00:33;;;;;;;9.77;8.87;;;6.20;62.70;;;;;;4970288;28;20418;-81
2021/12/17 08:02:59;;;;;;;10.53;9.63;;;6.20;62.50;;;;;;4970612;28;20176;-84
2021/12/17 08:05:26;;;;;;;15.70;12.80;;;6.20;62.60;;;;;;4953908;28;20184;-84
2021/12/17 08:07:52;;;;;;;11.97;9.73;;;6.30;61.90;;;;;;4972583;28;20184;-88
2021/12/17 08:10:17;;;;;;;11.03;9.63;;;6.20;61.10;;;;;;4974128;28;20411;-87
2021/12/17 08:12:55;;;;;;;9.83;8.93;;;6.20;61.30;;;;;;4974519;28;20166;-88
2021/12/17 08:15:23;;;;;;;10.00;9.10;;;6.30;61.00;;;;;;4955220;28;20544;-88
2021/12/17 08:18:18;;;;;;;9.67;8.77;;;6.20;60.60;;;;;;4953625;28;20434;-87
2021/12/17 08:28:18;;;;;;;7.93;7.23;;;6.20;60.20;;;;;;4956365;28;20160;-88
2021/12/17 08:30:44;;;;;;;7.70;7.10;;;6.20;60.00;;;;;;4954699;28;20900;-87
2021/12/17 08:33:10;;;;;;;8.73;7.93;;;6.20;59.50;;;;;;4954575;28;20473;-88
2021/12/17 08:35:37;;;;;;;9.23;8.43;;;6.10;59.70;;;;;;4954543;29;20789;-88
2021/12/17 08:38:08;;;;;;;8.13;7.40;;;6.10;59.90;;;;;;4954459;28;20199;-86
2021/12/17 08:40:34;;;;;;;8.60;7.70;;;6.10;60.00;;;;;;4955235;29;20512;-88
2021/12/17 08:43:25;;;;;;;9.57;8.63;;;6.10;60.30;;;;;;4955274;29;20506;-89
2021/12/17 08:45:51;;;;;;;7.80;7.10;;;6.10;60.00;;;;;;4955675;29;20167;-90
2021/12/17 08:48:16;;;;;;;7.60;7.00;;;6.10;60.60;;;;;;4955003;29;20418;-89
2021/12/17 08:50:42;;;;;;;7.00;6.30;;;6.10;60.40;;;;;;4954880;29;20183;-89
2021/12/17 08:53:08;;;;;;;7.20;6.60;;;6.10;60.40;;;;;;4954486;29;20175;-89
2021/12/17 08:55:36;;;;;;;7.63;6.50;;;6.20;60.80;;;;;;4970556;28;20515;-90
2021/12/17 08:58:02;;;;;;;6.40;5.80;;;6.20;59.60;;;;;;4954703;29;20598;-82
2021/12/17 09:00:28;;;;;;;6.93;6.43;;;6.20;59.80;;;;;;4954592;29;20415;-82
2021/12/17 09:02:59;;;;;;;7.67;6.70;;;6.30;59.40;;;;;;4954317;29;20427;-81
2021/12/17 09:05:26;;;;;;;8.83;6.80;;;6.30;59.20;;;;;;4953788;29;20188;-82
2021/12/17 09:07:51;;;;;;;7.27;6.57;;;6.30;59.10;;;;;;4953652;29;20427;-82
2021/12/17 09:10:21;;;;;;;8.73;7.93;;;6.30;58.40;;;;;;4954163;28;20561;-82
2021/12/17 09:12:50;;;;;;;10.40;9.40;;;6.30;58.20;;;;;;4954312;29;20206;-83
2021/12/17 09:15:16;;;;;;;6.57;5.93;;;6.30;57.70;;;;;;4954169;29;20928;-82
2021/12/17 09:17:41;;;;;;;8.17;7.37;;;6.30;57.90;;;;;;4953624;29;20434;-82
2021/12/17 09:20:08;;;;;;;8.67;7.87;;;6.30;58.80;;;;;;4953828;28;20186;-81
2021/12/17 09:22:34;;;;;;;8.30;7.60;;;6.30;58.80;;;;;;4955539;28;20256;-81
2021/12/17 09:25:00;;;;;;;7.30;6.53;;;6.40;57.60;;;;;;4956078;29;20427;-81
2021/12/17 09:27:26;;;;;;;7.30;6.57;;;6.50;56.80;;;;;;4954837;28;20427;-82
2021/12/17 09:29:51;;;;;;;7.53;6.83;;;6.50;56.90;;;;;;4954347;29;20485;-82
2021/12/17 09:32:17;;;;;;;8.40;7.60;;;6.50;56.90;;;;;;4954416;29;20183;-82
2021/12/17 09:34:42;;;;;;;8.37;7.57;;;6.60;56.80;;;;;;4953929;29;20180;-80
2021/12/17 09:37:08;;;;;;;8.13;7.30;;;6.60;57.40;;;;;;4954192;28;20187;-81
2021/12/17 09:39:34;;;;;;;8.27;7.50;;;6.70;57.10;;;;;;4953840;29;20209;-82
2021/12/17 09:42:00;;;;;;;7.60;6.90;;;6.70;56.00;;;;;;4955046;28;20647;-81
2021/12/17 09:44:26;;;;;;;7.90;7.20;;;6.70;56.80;;;;;;4955551;29;20179;-81
2021/12/17 09:46:57;;;;;;;7.90;7.23;;;6.70;57.40;;;;;;4954743;28;20434;-82
2021/12/17 09:49:24;;;;;;;7.87;7.13;;;6.60;56.50;;;;;;4953664;29;20191;-82
2021/12/17 09:51:50;;;;;;;8.20;7.50;;;6.60;57.70;;;;;;4934620;29;20434;-82
2021/12/17 09:54:17;;;;;;;7.30;6.70;;;6.60;56.20;;;;;;4950705;29;20435;-81
2021/12/17 09:56:43;;;;;;;8.17;7.47;;;6.60;56.70;;;;;;4950589;29;20506;-82
2021/12/17 09:59:10;;;;;;;8.10;7.30;;;6.60;58.00;;;;;;4950340;29;20507;-82
2021/12/17 10:01:38;;;;;;;7.30;6.60;;;6.70;57.30;;;;;;4950161;29;20482;-82
2021/12/17 10:04:13;;;;;;;7.43;6.73;;;6.60;57.50;;;;;;4950970;29;20805;-88
2021/12/17 10:06:41;;;;;;;7.53;6.83;;;6.60;57.60;;;;;;4951040;29;20431;-89
2021/12/17 10:09:12;;;;;;;9.07;8.23;;;6.70;58.10;;;;;;4951305;29;20419;-90
2021/12/17 10:11:38;;;;;;;7.40;6.70;;;6.70;57.30;;;;;;4951184;29;20419;-90
2021/12/17 10:14:22;;;;;;;7.37;6.67;;;6.70;57.00;;;;;;4951191;29;20818;-90
2021/12/17 10:16:48;;;;;;;8.70;7.90;;;6.60;56.40;;;;;;4952045;29;20433;-90
2021/12/17 10:19:49;;;;;;;7.70;6.90;;;6.60;55.60;;;;;;4937597;29;20467;-88
2021/12/17 10:22:18;;;;;;;8.00;7.20;;;6.50;55.50;;;;;;4952059;28;20473;-91
2021/12/17 10:25:09;;;;;;;9.40;8.03;;;6.60;55.60;;;;;;4952274;29;20434;-89
2021/12/17 10:27:37;;;;;;;8.97;8.07;;;6.70;56.00;;;;;;4952975;29;20422;-89
2021/12/17 10:30:21;;;;;;;7.03;6.40;;;6.70;54.90;;;;;;4951038;29;20431;-89
2021/12/17 10:32:58;;;;;;;8.17;7.47;;;6.70;55.60;;;;;;4950878;29;20428;-89
2021/12/17 10:35:30;;;;;;;7.00;6.40;;;6.70;55.90;;;;;;4951152;29;20422;-89
2021/12/17 10:38:01;;;;;;;8.37;7.57;;;6.70;55.30;;;;;;4951118;29;20423;-89
2021/12/17 10:40:50;;;;;;;8.83;8.03;;;6.80;55.50;;;;;;4952237;28;20804;-89
2021/12/17 10:43:40;;;;;;;7.37;6.70;;;6.80;55.60;;;;;;4954535;29;20986;-88
2021/12/17 10:46:44;;;;;;;8.90;7.67;;;6.80;54.90;;;;;;4953928;29;20408;-91
2021/12/17 10:49:17;;;;;;;7.97;7.27;;;6.90;54.90;;;;;;4953652;28;20897;-90
2021/12/17 10:51:47;;;;;;;7.87;7.00;;;6.90;54.50;;;;;;4953259;29;20428;-89
2021/12/17 10:54:28;;;;;;;7.87;7.03;;;7.00;54.60;;;;;;4953803;29;20416;-90
2021/12/17 10:57:12;;;;;;;10.23;9.20;;;7.00;54.30;;;;;;4953138;29;20494;-89
2021/12/17 10:59:51;;;;;;;9.77;8.93;;;7.00;54.20;;;;;;4953443;28;20475;-89
2021/12/17 11:02:17;;;;;;;11.20;9.00;;;7.00;54.40;;;;;;4983220;28;20492;-88
2021/12/17 11:04:46;;;;;;;11.37;10.17;;;7.00;54.80;;;;;;4975570;28;20423;-83
2021/12/17 11:07:17;;;;;;;10.03;9.13;;;7.00;55.40;;;;;;4958194;28;20191;-82
2021/12/17 11:09:55;;;;;;;10.33;9.30;;;7.10;55.30;;;;;;4955714;29;20431;-84
2021/12/17 11:12:38;;;;;;;11.70;9.83;;;7.10;55.70;;;;;;4955885;28;20711;-83
2021/12/17 11:15:13;;;;;;;13.30;12.00;;;7.10;55.60;;;;;;4955866;28;20592;-84
2021/12/17 11:17:41;;;;;;;9.87;8.97;;;7.20;55.70;;;;;;4956072;29;20422;-85
2021/12/17 11:20:14;;;;;;;9.03;8.23;;;7.10;55.30;;;;;;4956179;29;20482;-84
2021/12/17 11:22:42;;;;;;;9.70;8.80;;;7.10;55.00;;;;;;4955777;29;20449;-84
2021/12/17 11:25:08;;;;;;;9.87;8.93;;;7.10;54.90;;;;;;4955508;29;20490;-84
2021/12/17 11:27:34;;;;;;;10.30;9.27;;;7.20;54.80;;;;;;4955719;29;20425;-84
2021/12/17 11:30:01;;;;;;;10.97;9.03;;;7.20;55.00;;;;;;4955647;28;20423;-84
2021/12/17 11:32:28;;;;;;;9.27;8.40;;;7.20;55.50;;;;;;4955760;28;20659;-84
2021/12/17 11:34:54;;;;;;;12.00;8.67;;;7.20;55.50;;;;;;4955808;29;20835;-83
2021/12/17 11:37:20;;;;;;;9.67;8.63;;;7.10;56.00;;;;;;4955600;28;20423;-84
2021/12/17 11:39:55;;;;;;;9.40;8.50;;;7.20;55.50;;;;;;4954948;29;20894;-83
2021/12/17 11:43:00;;;;;;;9.47;8.60;;;7.10;55.30;;;;;;4955509;29;20501;-84
2021/12/17 11:45:28;;;;;;;8.17;7.40;;;7.10;55.40;;;;;;4955603;29;20425;-86
2021/12/17 11:48:24;;;;;;;10.60;9.50;;;7.00;54.90;;;;;;4955003;29;20484;-85
2021/12/17 11:51:30;;;;;;;16.50;13.00;;;7.10;54.80;;;;;;4950613;28;20451;-85
2021/12/17 11:54:28;;;;;;;14.13;11.27;;;7.20;54.70;;;;;;4935798;29;20422;-85
2021/12/17 11:57:05;;;;;;;8.87;8.07;;;7.20;54.00;;;;;;4954764;28;20437;-84
2021/12/17 11:59:43;;;;;;;9.00;8.20;;;7.20;54.00;;;;;;4954691;28;20458;-83
2021/12/17 12:02:15;;;;;;;8.93;8.13;;;7.20;54.70;;;;;;4955600;28;20450;-85
2021/12/17 12:04:47;;;;;;;9.30;8.40;;;7.20;55.20;;;;;;4953938;28;20420;-85
2021/12/17 12:07:24;;;;;;;8.93;7.60;;;7.20;55.20;;;;;;4955244;29;20261;-84
2021/12/17 12:09:59;;;;;;;11.23;6.53;;;7.20;55.40;;;;;;4955045;29;20432;-84
2021/12/17 12:12:51;;;;;;;8.23;7.53;;;7.20;55.10;;;;;;4954828;28;20995;-85
2021/12/17 12:15:17;;;;;;;8.83;8.03;;;7.20;55.50;;;;;;4954367;28;20480;-85
2021/12/17 12:18:03;;;;;;;10.90;8.40;;;7.30;54.70;;;;;;4972449;28;21143;-86
2021/12/17 12:20:50;;;;;;;8.67;7.77;;;7.30;54.80;;;;;;4975237;28;20169;-86
2021/12/17 12:23:27;;;;;;;9.30;8.40;;;7.20;55.00;;;;;;4973842;28;20832;-84
2021/12/17 12:26:02;;;;;;;9.30;8.40;;;7.30;55.00;;;;;;4973743;28;20485;-85
2021/12/17 12:28:49;;;;;;;8.93;8.13;;;7.30;55.70;;;;;;4935274;29;20987;-85
2021/12/17 12:31:36;;;;;;;9.73;8.60;;;7.30;55.80;;;;;;4951036;29;20426;-83
2021/12/17 12:34:09;;;;;;;8.40;7.70;;;7.30;55.50;;;;;;4950797;28;20511;-83
2021/12/17 12:36:54;;;;;;;7.90;7.20;;;7.40;55.30;;;;;;4951016;29;20414;-83
2021/12/17 12:39:38;;;;;;;8.17;7.47;;;7.40;55.70;;;;;;4950580;29;20474;-85
2021/12/17 12:42:19;;;;;;;8.13;7.43;;;7.40;55.90;;;;;;4950736;29;20782;-81
2021/12/17 12:44:45;;;;;;;8.20;7.30;;;7.50;55.40;;;;;;4950778;28;20459;-84
2021/12/17 12:47:26;;;;;;;8.60;7.90;;;7.40;55.70;;;;;;4963184;28;20808;-83
2021/12/17 12:50:06;;;;;;;8.27;7.47;;;7.50;55.90;;;;;;4973132;28;20206;-90
2021/12/17 12:52:45;;;;;;;8.33;7.50;;;7.50;56.00;;;;;;4980630;28;20513;-91
2021/12/17 12:55:33;;;;;;;7.23;6.60;;;7.60;55.80;;;;;;4976620;28;20448;-92
2021/12/17 12:57:58;;;;;;;7.63;6.87;;;7.60;55.20;;;;;;4975178;28;20413;-92
2021/12/17 13:00:35;;;;;;;7.77;7.03;;;7.70;55.10;;;;;;4976086;28;20402;-90
2021/12/17 13:03:07;;;;;;;8.70;7.03;;;7.70;55.10;;;;;;4974827;28;20221;-90
2021/12/17 13:05:34;;;;;;;6.80;6.17;;;7.80;55.20;;;;;;4974121;28;20472;-91
2021/12/17 13:08:02;;;;;;;8.93;8.03;;;7.80;54.70;;;;;;4973862;28;20423;-91
2021/12/17 13:10:37;;;;;;;8.97;8.07;;;7.80;54.70;;;;;;4973514;28;20456;-91
2021/12/17 13:13:32;;;;;;;9.33;8.50;;;7.80;55.20;;;;;;4973665;28;20496;-92
2021/12/17 13:24:23;;;;;;;11.03;7.87;;;7.90;54.90;;;;;;4975500;28;20390;-91
2021/12/17 13:26:58;;;;;;;8.70;7.90;;;7.80;55.20;;;;;;4974607;28;20478;-91
2021/12/17 13:29:31;;;;;;;8.60;7.73;;;7.80;55.50;;;;;;4974295;28;20488;-91
2021/12/17 13:32:03;;;;;;;8.83;8.03;;;7.80;55.60;;;;;;4974544;28;20453;-92
2021/12/17 13:34:36;;;;;;;6.10;5.50;;;7.80;55.80;;;;;;4974396;28;20949;-92
2021/12/17 13:37:07;;;;;;;8.03;7.20;;;7.80;55.80;;;;;;4975415;28;20452;-93
2021/12/17 13:39:42;;;;;;;9.17;8.23;;;7.80;55.70;;;;;;4974085;28;20470;-91
2021/12/17 13:42:13;;;;;;;8.00;6.80;;;7.80;56.10;;;;;;4974290;28;20515;-91
2021/12/17 13:44:43;;;;;;;8.63;7.83;;;7.80;55.70;;;;;;4975958;28;20418;-91
2021/12/17 13:47:27;;;;;;;9.33;8.27;;;7.80;56.30;;;;;;4976487;28;20412;-90
2021/12/17 13:50:05;;;;;;;8.90;8.00;;;7.80;56.80;;;;;;4973210;28;20456;-91
2021/12/17 13:52:33;;;;;;;8.60;7.80;;;7.80;56.40;;;;;;4973233;28;20809;-91
2021/12/17 13:55:03;;;;;;;9.27;8.47;;;7.80;56.60;;;;;;4973273;28;20425;-90
2021/12/17 13:57:31;;;;;;;8.60;7.80;;;7.80;56.00;;;;;;4973515;28;20432;-91
2021/12/17 14:00:09;;;;;;;8.87;6.70;;;7.80;56.20;;;;;;4973712;28;20521;-88
2021/12/17 14:02:37;;;;;;;10.10;8.10;;;7.80;56.40;;;;;;4973786;28;20413;-91
2021/12/17 14:05:08;;;;;;;8.67;7.77;;;7.80;55.90;;;;;;4973546;28;20429;-91
2021/12/17 14:07:35;;;;;;;8.53;7.73;;;7.80;56.40;;;;;;4973819;28;20409;-93
2021/12/17 14:10:09;;;;;;;7.80;7.07;;;7.80;56.60;;;;;;4973457;28;21012;-91
2021/12/17 14:12:39;;;;;;;8.83;7.87;;;7.90;56.50;;;;;;4973266;28;20481;-92
2021/12/17 14:15:11;;;;;;;8.70;7.70;;;7.90;56.20;;;;;;4976385;28;20803;-92
2021/12/17 14:17:43;;;;;;;7.93;7.00;;;7.90;56.10;;;;;;4977386;28;20425;-92
2021/12/17 14:20:14;;;;;;;7.10;6.30;;;7.90;55.90;;;;;;4977273;28;20477;-91
2021/12/17 14:22:42;;;;;;;8.10;6.47;;;7.90;56.20;;;;;;4977571;28;20410;-92
2021/12/17 14:25:33;;;;;;;8.97;7.97;;;7.90;56.30;;;;;;4978276;28;20525;-91
2021/12/17 14:28:07;;;;;;;10.30;9.00;;;7.80;56.70;;;;;;4978604;28;20768;-91
2021/12/17 14:30:33;;;;;;;10.03;9.03;;;7.80;56.90;;;;;;4978365;28;20414;-89
2021/12/17 14:33:20;;;;;;;9.70;8.80;;;7.90;57.10;;;;;;4979067;28;20417;-91
2021/12/17 14:35:50;;;;;;;9.90;8.90;;;7.90;57.20;;;;;;4978977;28;20459;-91
2021/12/17 14:38:19;;;;;;;10.50;9.57;;;7.80;57.50;;;;;;4978522;28;20468;-92
2021/12/17 14:40:53;;;;;;;10.50;9.60;;;7.90;57.60;;;;;;4977545;28;20760;-92
2021/12/17 14:43:40;;;;;;;10.60;9.60;;;7.80;57.70;;;;;;4977812;28;20416;-91
2021/12/17 14:49:02;;;;;;;14.03;12.63;;;7.80;58.00;;;;;;4977337;28;20425;-84
2021/12/17 15:04:43;;;;;;;10.97;9.97;;;7.40;59.70;;;;;;4977035;28;20174;-84
2021/12/17 15:07:09;;;;;;;11.00;10.00;;;7.40;60.10;;;;;;4975463;28;20418;-83
2021/12/17 15:09:38;;;;;;;11.87;10.00;;;7.50;59.80;;;;;;4975246;28;20777;-84
2021/12/17 15:12:13;;;;;;;10.33;9.33;;;7.50;59.80;;;;;;4975278;28;20497;-85
2021/12/17 15:14:39;;;;;;;11.63;10.57;;;7.40;59.70;;;;;;4975296;28;20441;-84
2021/12/17 15:17:04;;;;;;;12.23;10.93;;;7.40;59.70;;;;;;4975201;28;20434;-84
2021/12/17 15:19:31;;;;;;;13.20;11.80;;;7.40;59.70;;;;;;4975320;28;20209;-84
2021/12/17 15:21:56;;;;;;;11.77;10.60;;;7.40;59.80;;;;;;4975504;28;20237;-84
2021/12/17 15:24:22;;;;;;;13.33;12.00;;;7.40;60.00;;;;;;4975097;28;20417;-84
2021/12/17 15:26:48;;;;;;;12.30;11.10;;;7.30;60.40;;;;;;4974395;28;20185;-84
2021/12/17 15:29:13;;;;;;;12.27;11.13;;;7.30;59.60;;;;;;4974523;28;20290;-84
2021/12/17 15:31:39;;;;;;;12.67;11.37;;;7.20;61.30;;;;;;4975053;28;20185;-85
2021/12/17 15:34:05;;;;;;;12.70;11.50;;;7.20;60.50;;;;;;4975337;28;20192;-84
2021/12/17 15:36:33;;;;;;;13.20;11.93;;;7.10;60.20;;;;;;4975018;28;20190;-84
2021/12/17 15:38:59;;;;;;;13.17;11.87;;;7.10;61.00;;;;;;4974973;28;20209;-84
2021/12/17 15:41:25;;;;;;;12.47;11.17;;;7.10;60.50;;;;;;4975154;28;20431;-85
2021/12/17 15:43:51;;;;;;;13.00;11.77;;;7.10;60.70;;;;;;4974578;28;20665;-83
2021/12/17 15:46:17;;;;;;;12.97;11.67;;;7.10;60.20;;;;;;4974666;28;20615;-84
2021/12/17 15:48:45;;;;;;;12.43;11.33;;;7.20;59.90;;;;;;4974702;28;20512;-84
2021/12/17 15:51:10;;;;;;;12.77;11.57;;;7.10;60.20;;;;;;4974515;28;20186;-84
2021/12/17 15:53:36;;;;;;;12.80;11.37;;;7.10;59.80;;;;;;4974480;28;20433;-84
2021/12/17 15:56:02;;;;;;;12.50;11.30;;;7.00;60.20;;;;;;4974503;28;20193;-84
2021/12/17 15:58:28;;;;;;;11.70;10.60;;;7.00;60.40;;;;;;4974254;28;20251;-84
2021/12/17 16:00:54;;;;;;;12.93;11.63;;;7.00;60.20;;;;;;4974523;28;20461;-84
2021/12/17 16:03:26;;;;;;;12.13;10.93;;;7.00;60.50;;;;;;4956397;28;20192;-85
2021/12/17 16:05:52;;;;;;;14.70;10.87;;;7.00;60.10;;;;;;4955267;28;20196;-84
2021/12/17 16:08:18;;;;;;;11.70;10.60;;;7.00;60.00;;;;;;4972253;28;20782;-84
2021/12/17 16:21:38;;;;;;;12.20;10.63;;;6.90;60.20;;;;;;4955874;28;20581;-86
2021/12/17 16:24:04;;;;;;;12.73;11.33;;;6.90;59.90;;;;;;4954337;29;20440;-86
2021/12/17 16:26:30;;;;;;;12.60;11.37;;;6.90;60.00;;;;;;4964303;28;20433;-86
2021/12/17 16:28:55;;;;;;;12.50;11.30;;;6.80;59.50;;;;;;4954426;28;20875;-86
2021/12/17 16:31:24;;;;;;;13.10;11.70;;;6.80;59.20;;;;;;4954380;28;20195;-86
2021/12/17 16:33:52;;;;;;;12.20;11.00;;;6.80;59.20;;;;;;4954178;28;20187;-86